createdAt,value
2023-03-25T00:00:39.570Z,73.63
2023-03-25T00:03:11.199Z,73.34
2023-03-25T00:05:43.017Z,73.50
2023-03-25T00:08:14.571Z,72.70
2023-03-25T00:10:46.130Z,72.73
2023-03-25T00:13:17.992Z,72.73
2023-03-25T00:15:53.455Z,72.31
2023-03-25T00:18:33.949Z,72.11
2023-03-25T00:21:10.707Z,71.68
2023-03-25T00:23:42.554Z,71.45
2023-03-25T00:26:14.099Z,71.50
2023-03-25T00:28:45.803Z,71.17
2023-03-25T00:31:17.375Z,71.44
2023-03-25T00:33:50.837Z,70.86
2023-03-25T00:36:22.348Z,71.17
2023-03-25T00:38:53.994Z,70.83
2023-03-25T00:41:26.129Z,70.68
2023-03-25T00:43:59.556Z,70.24
2023-03-25T00:46:33.105Z,70.13
2023-03-25T00:49:04.707Z,70.32
2023-03-25T00:51:36.315Z,70.54
2023-03-25T00:54:24.867Z,68.80
2023-03-25T00:56:56.507Z,69.07
2023-03-25T00:59:28.099Z,68.42
2023-03-25T01:01:59.639Z,68.05
2023-03-25T01:04:31.223Z,68.03
2023-03-25T01:07:03.629Z,67.47
2023-03-25T01:09:34.996Z,67.33
2023-03-25T01:12:06.630Z,67.18
2023-03-25T01:14:38.507Z,66.96
2023-03-25T01:17:11.480Z,66.73
2023-03-25T01:19:43.136Z,66.49
2023-03-25T01:22:14.912Z,66.37
2023-03-25T01:24:46.435Z,66.08
2023-03-25T01:27:17.970Z,65.91
2023-03-25T01:29:49.600Z,65.83
2023-03-25T01:32:21.193Z,66.50
2023-03-25T01:34:52.832Z,66.67
2023-03-25T01:37:25.693Z,66.33
2023-03-25T01:39:57.306Z,66.44
2023-03-25T01:42:28.766Z,66.76
2023-03-25T01:45:20.763Z,66.68
2023-03-25T01:48:06.212Z,65.94
2023-03-25T01:50:45.300Z,65.96
2023-03-25T01:53:16.933Z,65.15
2023-03-25T01:55:52.994Z,65.03
2023-03-25T01:58:27.247Z,65.35
2023-03-25T02:01:01.494Z,65.55
2023-03-25T02:03:37.349Z,65.26
2023-03-25T02:06:29.302Z,65.34
2023-03-25T02:09:05.095Z,65.65
2023-03-25T02:11:36.588Z,65.95
2023-03-25T02:14:14.424Z,65.94
2023-03-25T02:17:06.981Z,66.01
2023-03-25T02:19:53.734Z,65.56
2023-03-25T02:22:59.492Z,64.88
2023-03-25T02:25:35.166Z,65.60
2023-03-25T02:28:47.221Z,65.02
2023-03-25T02:31:32.394Z,65.25
2023-03-25T02:34:13.105Z,65.47
2023-03-25T02:37:22.921Z,65.18
2023-03-25T02:40:10.325Z,65.54
2023-03-25T02:42:49.316Z,65.34
2023-03-25T02:45:43.957Z,65.43
2023-03-25T02:48:51.158Z,65.28
2023-03-25T02:51:31.645Z,65.37
2023-03-25T02:54:09.117Z,65.08
2023-03-25T02:56:44.704Z,65.44
2023-03-25T02:59:19.026Z,65.08
2023-03-25T03:01:51.316Z,65.38
2023-03-25T03:04:22.849Z,64.76
2023-03-25T03:06:56.708Z,65.14
2023-03-25T03:09:46.772Z,63.89
2023-03-25T03:12:46.883Z,64.15
2023-03-25T03:15:21.098Z,63.35
2023-03-25T03:18:17.121Z,63.59
2023-03-25T03:21:23.329Z,63.45
2023-03-25T03:24:16.796Z,64.37
2023-03-25T03:26:59.584Z,64.40
2023-03-25T03:29:41.428Z,65.25
2023-03-25T03:32:37.563Z,65.75
2023-03-25T03:35:25.850Z,66.06
2023-03-25T03:38:04.844Z,66.69
2023-03-25T03:40:38.803Z,67.07
2023-03-25T03:43:26.042Z,67.67
2023-03-25T03:46:05.208Z,67.82
2023-03-25T03:48:47.791Z,67.78
2023-03-25T03:51:24.908Z,67.99
2023-03-25T03:54:08.764Z,67.83
2023-03-25T03:56:46.634Z,68.09
2023-03-25T03:59:24.614Z,68.02
2023-03-25T04:02:01.329Z,68.18
2023-03-25T04:04:34.832Z,68.42
2023-03-25T04:07:10.768Z,67.96
2023-03-25T04:10:02.746Z,67.80
2023-03-25T04:12:41.010Z,67.74
2023-03-25T04:15:12.938Z,68.29
2023-03-25T04:17:45.184Z,67.86
2023-03-25T04:20:23.759Z,67.90
2023-03-25T04:22:55.676Z,67.36
2023-03-25T04:25:27.656Z,67.18
2023-03-25T04:27:59.984Z,67.05
2023-03-25T04:30:31.358Z,66.50
2023-03-25T04:33:02.878Z,66.24
2023-03-25T04:35:34.417Z,66.03
2023-03-25T04:38:07.245Z,66.12
2023-03-25T04:40:40.640Z,66.02
2023-03-25T04:43:16.867Z,65.82
2023-03-25T04:45:54.782Z,65.62
2023-03-25T04:48:32.902Z,65.06
2023-03-25T04:51:04.588Z,65.30
2023-03-25T04:53:37.457Z,65.05
2023-03-25T04:56:16.195Z,65.32
2023-03-25T04:58:47.858Z,65.42
2023-03-25T05:01:32.824Z,64.90
2023-03-25T05:04:05.637Z,65.42
2023-03-25T05:06:39.451Z,65.50
2023-03-25T05:09:16.696Z,65.61
2023-03-25T05:11:49.359Z,65.53
2023-03-25T05:14:22.018Z,65.55
2023-03-25T05:16:55.684Z,65.52
2023-03-25T05:19:28.840Z,65.07
2023-03-25T05:22:02.236Z,65.05
2023-03-25T05:24:34.088Z,64.95
2023-03-25T05:27:05.621Z,64.84
2023-03-25T05:29:37.238Z,64.44
2023-03-25T05:32:08.822Z,64.03
2023-03-25T05:34:40.472Z,64.18
2023-03-25T05:37:13.255Z,64.08
2023-03-25T05:39:46.295Z,64.26
2023-03-25T05:42:18.424Z,63.96
2023-03-25T05:44:54.109Z,64.12
2023-03-25T05:47:25.736Z,64.29
2023-03-25T05:50:00.836Z,63.87
2023-03-25T05:52:32.402Z,63.48
2023-03-25T05:55:06.062Z,63.44
2023-03-25T05:57:37.712Z,63.38
2023-03-25T06:00:11.132Z,63.42
2023-03-25T06:02:45.619Z,63.18
2023-03-25T06:05:17.496Z,63.72
2023-03-25T06:07:50.013Z,62.55
2023-03-25T06:10:22.477Z,62.34
2023-03-25T06:12:55.154Z,61.60
2023-03-25T06:15:34.186Z,60.81
2023-03-25T06:18:05.790Z,60.45
2023-03-25T06:20:38.165Z,60.23
2023-03-25T06:23:09.957Z,59.77
2023-03-25T06:25:41.438Z,59.18
2023-03-25T06:28:12.884Z,58.99
2023-03-25T06:30:46.150Z,58.19
2023-03-25T06:33:43.100Z,57.94
2023-03-25T06:36:12.559Z,58.40
2023-03-25T06:38:49.396Z,58.77
2023-03-25T06:41:21.969Z,59.07
2023-03-25T06:43:53.528Z,59.34
2023-03-25T06:46:26.672Z,59.75
2023-03-25T06:48:58.216Z,60.16
2023-03-25T06:51:29.866Z,60.55
2023-03-25T06:54:01.370Z,60.81
2023-03-25T06:56:33.345Z,61.70
2023-03-25T06:59:05.794Z,61.71
2023-03-25T07:01:37.249Z,61.98
2023-03-25T07:04:08.805Z,62.21
2023-03-25T07:06:41.209Z,62.24
2023-03-25T07:09:12.567Z,62.65
2023-03-25T07:11:44.156Z,62.75
2023-03-25T07:14:15.846Z,62.88
2023-03-25T07:16:48.400Z,62.61
2023-03-25T07:19:20.086Z,62.94
2023-03-25T07:21:51.587Z,62.94
2023-03-25T07:24:23.060Z,63.08
2023-03-25T07:26:54.458Z,62.80
2023-03-25T07:29:25.892Z,63.53
2023-03-25T07:31:59.508Z,63.36
2023-03-25T07:34:31.109Z,64.15
2023-03-25T07:37:03.996Z,63.83
2023-03-25T07:39:35.652Z,63.46
2023-03-25T07:42:07.463Z,62.60
2023-03-25T07:44:38.921Z,63.03
2023-03-25T07:47:13.537Z,63.13
2023-03-25T07:49:46.794Z,63.12
2023-03-25T07:52:18.313Z,63.35
2023-03-25T07:54:49.754Z,63.71
2023-03-25T07:57:21.230Z,64.09
2023-03-25T07:59:52.692Z,64.85
2023-03-25T08:02:24.214Z,64.50
2023-03-25T08:04:55.881Z,64.73
2023-03-25T08:07:28.362Z,64.96
2023-03-25T08:09:59.853Z,64.52
2023-03-25T08:12:31.619Z,63.91
2023-03-25T08:15:03.780Z,63.91
2023-03-25T08:17:35.648Z,63.63
2023-03-25T08:20:08.516Z,62.24
2023-03-25T08:22:40.192Z,61.82
2023-03-25T08:25:11.965Z,60.94
2023-03-25T08:27:43.835Z,61.12
2023-03-25T08:30:15.789Z,61.39
2023-03-25T08:32:54.521Z,60.44
2023-03-25T08:35:26.592Z,60.29
2023-03-25T08:38:02.236Z,60.58
2023-03-25T08:40:35.686Z,60.37
2023-03-25T08:43:07.337Z,60.88
2023-03-25T08:45:38.890Z,60.38
2023-03-25T08:48:11.241Z,60.12
2023-03-25T08:50:42.935Z,60.46
2023-03-25T08:53:16.265Z,60.22
2023-03-25T08:55:51.769Z,61.83
2023-03-25T08:58:25.211Z,61.79
2023-03-25T09:00:57.969Z,61.24
2023-03-25T09:03:29.743Z,61.26
2023-03-25T09:06:10.169Z,60.89
2023-03-25T09:08:41.677Z,60.92
2023-03-25T09:11:13.234Z,61.01
2023-03-25T09:13:44.716Z,60.07
2023-03-25T09:16:16.266Z,60.35
2023-03-25T09:18:47.911Z,60.95
2023-03-25T09:21:19.515Z,60.41
2023-03-25T09:23:51.327Z,60.33
2023-03-25T09:26:22.814Z,60.09
2023-03-25T09:29:00.369Z,59.18
2023-03-25T09:31:33.481Z,59.14
2023-03-25T09:34:05.442Z,59.49
2023-03-25T09:36:38.636Z,59.13
2023-03-25T09:39:10.264Z,59.23
2023-03-25T09:42:03.178Z,58.52
2023-03-25T09:45:11.398Z,57.05
2023-03-25T09:47:51.951Z,56.41
2023-03-25T09:50:24.906Z,55.68
2023-03-25T09:53:24.434Z,55.19
2023-03-25T09:55:56.313Z,55.03
2023-03-25T09:58:36.578Z,54.22
2023-03-25T10:01:27.641Z,55.22
2023-03-25T10:04:15.518Z,55.73
2023-03-25T10:06:53.102Z,54.46
2023-03-25T10:10:01.069Z,53.35
2023-03-25T10:13:11.448Z,52.67
2023-03-25T10:16:24.141Z,53.15
2023-03-25T10:19:32.485Z,52.37
2023-03-25T10:22:09.236Z,51.80
2023-03-25T10:25:00.350Z,51.54
2023-03-25T10:27:33.535Z,51.78
2023-03-25T10:30:18.012Z,52.04
2023-03-25T10:33:01.699Z,52.86
2023-03-25T10:35:39.364Z,53.80
2023-03-25T10:38:18.796Z,55.81
2023-03-25T10:40:53.143Z,55.18
2023-03-25T10:43:36.141Z,54.60
2023-03-25T10:46:27.413Z,53.89
2023-03-25T10:48:59.250Z,52.73
2023-03-25T10:51:34.372Z,52.61
2023-03-25T10:54:06.134Z,52.47
2023-03-25T10:56:50.802Z,51.80
2023-03-25T10:59:43.572Z,50.99
2023-03-25T11:02:19.745Z,50.50
2023-03-25T11:04:56.110Z,50.74
2023-03-25T11:07:33.321Z,51.23
2023-03-25T11:10:13.759Z,52.20
2023-03-25T11:12:46.539Z,51.36
2023-03-25T11:15:31.611Z,51.00
2023-03-25T11:18:12.179Z,51.77
2023-03-25T11:20:54.763Z,51.64
2023-03-25T11:23:28.831Z,52.95
2023-03-25T11:26:15.508Z,52.70
2023-03-25T11:28:56.087Z,52.82
2023-03-25T11:31:31.356Z,53.01
2023-03-25T11:34:09.042Z,52.48
2023-03-25T11:36:49.735Z,51.52
2023-03-25T11:39:34.628Z,51.46
2023-03-25T11:42:32.571Z,51.76
2023-03-25T11:45:09.047Z,51.38
2023-03-25T11:47:42.267Z,52.07
2023-03-25T11:50:26.908Z,51.89
2023-03-25T11:53:01.860Z,52.11
2023-03-25T11:55:45.087Z,51.40
2023-03-25T11:58:19.652Z,51.31
2023-03-25T12:01:00.946Z,50.95
2023-03-25T12:03:39.399Z,51.00
2023-03-25T12:06:11.610Z,49.85
2023-03-25T12:08:52.240Z,50.05
2023-03-25T12:11:47.709Z,49.65
2023-03-25T12:14:34.557Z,49.48
2023-03-25T12:17:13.518Z,49.40
2023-03-25T12:20:00.277Z,50.28
2023-03-25T12:22:40.674Z,50.58
2023-03-25T12:25:27.230Z,51.28
2023-03-25T12:28:36.887Z,51.78
2023-03-25T12:31:31.996Z,52.37
2023-03-25T12:34:22.252Z,52.46
2023-03-25T12:37:17.358Z,52.87
2023-03-25T12:40:26.660Z,53.28
2023-03-25T12:43:03.768Z,52.77
2023-03-25T12:49:16.850Z,53.11
2023-03-25T12:51:48.239Z,51.71
2023-03-25T12:54:31.676Z,51.00
2023-03-25T12:57:24.445Z,49.97
2023-03-25T13:00:34.842Z,48.08
2023-03-25T13:03:12.583Z,48.74
2023-03-25T13:05:59.638Z,49.52
2023-03-25T13:08:48.021Z,49.07
2023-03-25T13:11:37.522Z,48.83
2023-03-25T13:14:34.030Z,48.39
2023-03-25T13:17:11.469Z,49.47
2023-03-25T13:19:44.332Z,48.90
2023-03-25T13:22:25.814Z,49.56
2023-03-25T13:25:03.454Z,50.41
2023-03-25T13:27:40.556Z,49.43
2023-03-25T13:30:33.566Z,48.58
2023-03-25T13:33:15.703Z,48.96
2023-03-25T13:35:56.161Z,48.22
2023-03-25T13:38:33.256Z,48.73
2023-03-25T13:41:39.957Z,47.52
2023-03-25T13:44:20.264Z,45.08
2023-03-25T13:47:00.280Z,42.26
2023-03-25T13:49:42.354Z,39.65
2023-03-25T13:52:14.916Z,38.12
2023-03-25T13:55:00.727Z,38.57
2023-03-25T13:57:52.007Z,36.58
2023-03-25T14:00:54.565Z,33.55
2023-03-25T14:03:42.280Z,35.63
2023-03-25T14:06:35.582Z,31.71
2023-03-25T14:09:34.261Z,31.15
2023-03-25T14:12:28.554Z,28.44
2023-03-25T14:15:06.517Z,28.32
2023-03-25T14:17:39.704Z,28.15
2023-03-25T14:20:25.276Z,28.22
2023-03-25T14:23:01.948Z,26.57
2023-03-25T14:25:37.618Z,27.02
2023-03-25T14:28:16.452Z,26.22
2023-03-25T14:31:08.505Z,25.91
2023-03-25T14:33:58.587Z,26.70
2023-03-25T14:36:51.929Z,25.55
2023-03-25T14:39:29.357Z,25.85
2023-03-25T14:42:11.455Z,29.37
2023-03-25T14:44:49.522Z,30.95
2023-03-25T14:47:31.996Z,30.47
2023-03-25T14:50:21.636Z,28.95
2023-03-25T14:52:59.955Z,30.94
2023-03-25T14:55:34.643Z,30.81
2023-03-25T14:58:14.921Z,29.08
2023-03-25T15:01:20.450Z,27.83
2023-03-25T15:04:19.133Z,29.51
2023-03-25T15:06:51.925Z,28.57
2023-03-25T15:09:23.637Z,28.48
2023-03-25T15:11:58.236Z,27.74
2023-03-25T15:14:37.185Z,27.82
2023-03-25T15:17:32.796Z,28.13
2023-03-25T15:20:10.420Z,29.28
2023-03-25T15:22:42.467Z,30.02
2023-03-25T15:25:19.595Z,33.01
2023-03-25T15:28:13.399Z,34.87
2023-03-25T15:30:59.684Z,37.87
2023-03-25T15:33:49.476Z,36.44
2023-03-25T15:36:39.791Z,34.38
2023-03-25T15:39:32.231Z,37.25
2023-03-25T15:42:10.835Z,40.69
2023-03-25T15:45:12.445Z,42.99
2023-03-25T15:47:46.850Z,44.76
2023-03-25T15:50:37.227Z,42.16
2023-03-25T15:53:53.047Z,39.92
2023-03-25T15:56:29.737Z,39.47
2023-03-25T15:59:12.504Z,40.92
2023-03-25T16:01:49.358Z,39.32
2023-03-25T16:04:42.332Z,38.67
2023-03-25T16:07:17.621Z,37.67
2023-03-25T16:09:50.398Z,39.83
2023-03-25T16:12:24.624Z,40.82
2023-03-25T16:14:56.141Z,41.98
2023-03-25T16:17:34.648Z,43.36
2023-03-25T16:20:07.746Z,45.10
2023-03-25T16:22:43.160Z,45.90
2023-03-25T16:25:19.661Z,47.21
2023-03-25T16:27:56.036Z,48.04
2023-03-25T16:30:39.997Z,48.82
2023-03-25T16:33:14.773Z,49.91
2023-03-25T16:35:51.948Z,49.94
2023-03-25T16:38:25.409Z,49.98
2023-03-25T16:41:24.054Z,50.50
2023-03-25T16:43:55.904Z,51.14
2023-03-25T16:46:28.211Z,50.65
2023-03-25T16:49:00.025Z,50.59
2023-03-25T16:51:36.787Z,50.45
2023-03-25T16:57:08.334Z,51.29
2023-03-25T16:59:39.891Z,51.38
2023-03-25T17:02:26.827Z,52.09
2023-03-25T17:05:21.982Z,52.55
2023-03-25T17:08:00.275Z,52.67
2023-03-25T17:10:44.239Z,53.52
2023-03-25T17:16:19.329Z,54.56
2023-03-25T17:18:53.060Z,55.16
2023-03-25T17:21:29.960Z,55.03
2023-03-25T17:24:07.795Z,55.44
2023-03-25T17:26:55.974Z,56.26
2023-03-25T17:29:27.433Z,56.89
2023-03-25T17:31:59.655Z,57.80
2023-03-25T17:34:32.122Z,57.87
2023-03-25T17:37:03.883Z,58.17
2023-03-25T17:39:36.348Z,58.84
2023-03-25T17:42:19.672Z,59.41
2023-03-25T17:44:52.099Z,59.11
2023-03-25T17:47:23.698Z,58.94
2023-03-25T17:49:56.411Z,59.67
2023-03-25T17:52:29.513Z,59.36
2023-03-25T17:55:02.974Z,60.52
2023-03-25T17:57:37.517Z,60.76
2023-03-25T18:00:15.259Z,60.86
2023-03-25T18:02:48.107Z,60.68
2023-03-25T18:05:19.653Z,61.05
2023-03-25T18:07:52.228Z,60.94
2023-03-25T18:10:25.695Z,60.64
2023-03-25T18:12:57.248Z,60.65
2023-03-25T18:15:28.713Z,60.81
2023-03-25T18:18:01.462Z,61.37
2023-03-25T18:20:35.981Z,60.95
2023-03-25T18:23:07.631Z,61.17
2023-03-25T18:25:40.912Z,61.08
2023-03-25T18:28:14.163Z,61.44
2023-03-25T18:30:56.602Z,61.87
2023-03-25T18:33:28.807Z,62.08
2023-03-25T18:36:01.517Z,62.60
2023-03-25T18:38:33.183Z,62.94
2023-03-25T18:41:06.611Z,63.20
2023-03-25T18:43:38.095Z,63.57
2023-03-25T18:46:14.161Z,63.99
2023-03-25T18:48:45.795Z,64.41
2023-03-25T18:51:17.597Z,64.71
2023-03-25T18:53:49.393Z,65.17
2023-03-25T18:56:20.911Z,64.86
2023-03-25T18:58:53.158Z,65.46
2023-03-25T19:01:25.472Z,65.21
2023-03-25T19:04:03.244Z,65.55
2023-03-25T19:06:37.486Z,65.33
2023-03-25T19:09:18.604Z,65.45
2023-03-25T19:11:50.366Z,66.15
2023-03-25T19:14:22.247Z,65.66
2023-03-25T19:17:03.227Z,65.57
2023-03-25T19:19:36.980Z,66.47
2023-03-25T19:22:09.792Z,66.68
2023-03-25T19:24:41.487Z,66.89
2023-03-25T19:27:13.321Z,66.75
2023-03-25T19:29:44.882Z,66.96
2023-03-25T19:32:17.517Z,67.16
2023-03-25T19:34:51.856Z,67.21
2023-03-25T19:37:26.712Z,66.71
2023-03-25T19:39:58.386Z,66.73
2023-03-25T19:42:29.879Z,67.28
2023-03-25T19:45:13.484Z,67.30
2023-03-25T19:47:45.825Z,66.87
2023-03-25T19:50:29.034Z,67.11
2023-03-25T19:53:03.034Z,67.10
2023-03-25T19:55:34.929Z,67.17
2023-03-25T19:58:07.414Z,67.13
2023-03-25T20:00:40.581Z,67.18
2023-03-25T20:03:14.818Z,67.69
2023-03-25T20:05:46.398Z,67.23
2023-03-25T20:08:17.884Z,67.15
2023-03-25T20:10:49.370Z,67.31
2023-03-25T20:13:21.346Z,67.35
2023-03-25T20:15:53.117Z,67.00
2023-03-25T20:18:24.911Z,66.94
2023-03-25T20:20:56.461Z,67.06
2023-03-25T20:23:28.031Z,67.31
2023-03-25T20:25:59.985Z,67.20
2023-03-25T20:28:31.587Z,67.02
2023-03-25T20:31:18.470Z,67.02
2023-03-25T20:33:50.766Z,67.30
2023-03-25T20:36:22.388Z,67.46
2023-03-25T20:38:57.671Z,67.58
2023-03-25T20:41:30.041Z,67.18
2023-03-25T20:44:01.675Z,67.24
2023-03-25T20:46:33.323Z,67.04
2023-03-25T20:49:08.921Z,67.22
2023-03-25T20:51:41.610Z,67.28
2023-03-25T20:54:17.177Z,67.20
2023-03-25T20:56:51.194Z,67.06
2023-03-25T20:59:22.982Z,67.04
2023-03-25T21:01:54.787Z,67.15
2023-03-25T21:04:26.546Z,67.45
2023-03-25T21:06:58.218Z,67.34
2023-03-25T21:09:30.130Z,67.20
2023-03-25T21:12:01.721Z,67.35
2023-03-25T21:14:33.207Z,67.40
2023-03-25T21:17:05.158Z,67.41
2023-03-25T21:19:38.166Z,67.76
2023-03-25T21:22:10.149Z,67.76
2023-03-25T21:24:42.650Z,67.60
2023-03-25T21:27:14.790Z,67.31
2023-03-25T21:29:47.110Z,67.55
2023-03-25T21:32:18.516Z,67.50
2023-03-25T21:34:50.065Z,67.35
2023-03-25T21:37:21.598Z,67.56
2023-03-25T21:39:58.168Z,67.31
2023-03-25T21:42:29.720Z,67.46
2023-03-25T21:45:02.616Z,67.07
2023-03-25T21:47:36.032Z,66.89
2023-03-25T21:50:10.979Z,66.84
2023-03-25T21:52:48.275Z,66.87
2023-03-25T21:55:19.809Z,67.52
2023-03-25T21:57:51.453Z,67.38
2023-03-25T22:00:24.685Z,67.40
2023-03-25T22:02:58.876Z,67.29
2023-03-25T22:05:32.738Z,67.37
2023-03-25T22:08:06.791Z,66.62
2023-03-25T22:10:38.401Z,66.93
2023-03-25T22:13:09.879Z,66.94
2023-03-25T22:15:41.774Z,67.23
2023-03-25T22:18:13.274Z,67.00
2023-03-25T22:20:44.872Z,66.63
2023-03-25T22:23:16.448Z,66.77
2023-03-25T22:25:49.070Z,66.99
2023-03-25T22:28:20.575Z,67.15
2023-03-25T22:30:52.110Z,66.88
2023-03-25T22:33:23.891Z,67.05
2023-03-25T22:36:03.331Z,67.09
2023-03-25T22:38:36.487Z,66.83
2023-03-25T22:41:09.205Z,66.91
2023-03-25T22:43:41.089Z,66.70
2023-03-25T22:46:13.852Z,66.59
2023-03-25T22:48:45.870Z,66.70
2023-03-25T22:51:20.332Z,66.67
2023-03-25T22:53:51.898Z,66.92
2023-03-25T22:56:25.867Z,66.84
2023-03-25T22:58:57.423Z,66.86
2023-03-25T23:01:29.524Z,66.53
2023-03-25T23:04:01.242Z,66.37
2023-03-25T23:06:35.502Z,66.43
2023-03-25T23:09:09.286Z,66.49
2023-03-25T23:11:40.993Z,66.55
2023-03-25T23:14:13.325Z,67.02
2023-03-25T23:16:45.051Z,66.41
2023-03-25T23:19:16.612Z,66.73
2023-03-25T23:21:48.200Z,66.53
2023-03-25T23:24:19.965Z,66.56
2023-03-25T23:26:52.091Z,66.43
2023-03-25T23:29:23.793Z,66.59
2023-03-25T23:31:55.646Z,66.72
2023-03-25T23:34:27.287Z,66.17
2023-03-25T23:36:58.866Z,66.33
2023-03-25T23:39:30.929Z,66.28
2023-03-25T23:42:02.621Z,65.99
2023-03-25T23:44:34.625Z,66.11
2023-03-25T23:47:06.325Z,66.36
2023-03-25T23:49:38.529Z,66.23
2023-03-25T23:52:11.766Z,66.13
2023-03-25T23:54:43.331Z,66.12
2023-03-25T23:57:16.023Z,65.99
2023-03-25T23:59:47.755Z,66.30
